Hertfordshire — ZDJS5 — position and weather

sailwx.info

Track history (hours):
 
Tides and Currents Weather Stations Pressure Air Temp Water Temp Dewpoint Dewpoint Depression Visibility Wind Speed Wind Dir Waves Ship Positions

Hertfordshire

Last reported at 2014-Sep-21 15:33 UTC. Time now 2014-Sep-21 16:14 UTC.
Position N 56°06' W 003°07'.

Length 83 m; draft 4.3 m.

Type: Cargo ship. MMSI: 236563000.

Date/timePositionNaut miles runAvg speedWind from/ knotsBaromVisibWave heightAir tempDewpointWater temp
2014-Sep-21 15:33N 56°06' W 003°07'0 0.0
2014-Sep-21 14:33N 56°06' W 003°07'0 0.0
2014-Sep-21 13:33N 56°06' W 003°07'0 0.0
2014-Sep-21 12:33N 56°06' W 003°07'0 0.0
2014-Sep-21 11:33N 56°06' W 003°07'0 0.0
2014-Sep-21 10:33N 56°06' W 003°07'0 0.0
2014-Sep-21 09:33N 56°06' W 003°07'0 0.0
2014-Sep-21 08:24N 56°06' W 003°07'0 0.0
2014-Sep-21 07:24N 56°06' W 003°07'0 0.0
2014-Sep-21 06:27N 56°06' W 003°07'0 0.0
2014-Sep-21 05:27N 56°06' W 003°07'0 0.0
2014-Sep-21 04:27N 56°06' W 003°07'0 0.0
2014-Sep-21 03:30N 56°06' W 003°07'0 0.0
2014-Sep-21 02:30N 56°06' W 003°07'0 0.0
2014-Sep-21 01:33N 56°06' W 003°07'0 0.0
2014-Sep-21 00:33N 56°06' W 003°07'0 0.0
2014-Sep-20 23:33N 56°06' W 003°07'0 0.0
2014-Sep-20 22:33N 56°06' W 003°07'0 0.0
2014-Sep-20 21:33N 56°06' W 003°07'0 0.0
2014-Sep-20 20:33N 56°06' W 003°07'0 0.0
2014-Sep-20 19:33N 56°06' W 003°07'0 0.0
2014-Sep-20 18:24N 56°06' W 003°07'0 0.1
2014-Sep-20 17:27N 56°06' W 003°07'0 0.0
2014-Sep-20 16:27N 56°06' W 003°07'0 0.0
2014-Sep-20 15:27N 56°06' W 003°07'0 0.0
2014-Sep-20 14:27N 56°06' W 003°07'0 0.0
2014-Sep-20 13:30N 56°06' W 003°07'0 0.0
2014-Sep-20 12:30N 56°07' W 003°07'4 4.7
2014-Sep-20 11:33N 56°06' W 002°59'1010.4
2014-Sep-20 10:33N 56°06' W 002°41'1010.2
2014-Sep-20 09:33N 56°02' W 002°24'1010.2
2014-Sep-20 08:33N 55°57' W 002°07'29 9.5
2014-Sep-20 05:32N 55°38' W 001°30'1110.2
2014-Sep-20 04:30N 55°28' W 001°21'10 9.9
2014-Sep-20 03:27N 55°19' W 001°12'9 9.7
2014-Sep-20 02:33N 55°12' W 001°05'10 9.7
2014-Sep-20 01:33N 55°03' W 000°57'9 9.5
2014-Sep-20 00:33N 54°55' W 000°48'9 9.3
2014-Sep-19 23:33N 54°47' W 000°40'10 9.5
2014-Sep-19 22:33N 54°39' W 000°32'10 9.9
2014-Sep-19 21:33N 54°31' W 000°22'1010.2
2014-Sep-19 20:33N 54°22' W 000°13'1110.6
2014-Sep-19 19:33N 54°13' W 000°03'1110.7
2014-Sep-19 18:33N 54°04' E 000°07'1010.4
2014-Sep-19 17:33N 53°55' E 000°15'1010.2
2014-Sep-19 16:33N 53°46' E 000°23'10 9.6
2014-Sep-19 15:31N 53°37' E 000°30'38 8.9
2014-Sep-19 11:18N 53°04' E 001°03'810.9
2014-Sep-19 10:33N 53°00' E 001°14'1211.6
2014-Sep-19 09:34N 52°55' E 001°31'1111.1
2014-Sep-19 08:33N 52°48' E 001°46'9 9.0
2014-Sep-19 07:33N 52°40' E 001°54'9 9.3
2014-Sep-19 06:33N 52°31' E 001°53'9 8.6
2014-Sep-19 05:33N 52°23' E 001°52'8 8.3
2014-Sep-19 04:33N 52°14' E 001°51'8 8.3
2014-Sep-19 03:33N 52°06' E 001°50'9 8.8
2014-Sep-19 02:33N 51°57' E 001°49'8 8.2
2014-Sep-19 01:33N 51°50' E 001°44'10 9.8
2014-Sep-19 00:33N 51°46' E 001°29'1110.8
2014-Sep-18 23:34N 51°39' E 001°16'1110.9
2014-Sep-18 22:33N 51°32' E 001°02'1110.6
2014-Sep-18 21:33N 51°29' E 000°46'1010.0
2014-Sep-18 20:33N 51°30' E 000°30'7 6.7
2014-Sep-18 19:33N 51°28' E 000°20'0 0.2
2014-Sep-18 18:33N 51°28' E 000°20'0 0.0
2014-Sep-18 17:33N 51°28' E 000°20'0 0.0
2014-Sep-18 16:33N 51°28' E 000°20'0 0.0
2014-Sep-18 15:33N 51°28' E 000°20'0 0.0
2014-Sep-18 14:33N 51°28' E 000°20'0 0.0
2014-Sep-18 13:33N 51°28' E 000°20'0 0.0
2014-Sep-18 12:34N 51°28' E 000°20'0 0.0
2014-Sep-18 11:34N 51°28' E 000°20'0 0.0
2014-Sep-18 10:34N 51°28' E 000°20'0 0.0
2014-Sep-18 09:34N 51°28' E 000°20'0 0.0
2014-Sep-18 08:34N 51°28' E 000°20'0 0.0
2014-Sep-18 07:34N 51°28' E 000°20'0 0.0
2014-Sep-18 06:34N 51°28' E 000°20'0 0.1
2014-Sep-18 05:34N 51°28' E 000°20'0 0.1
2014-Sep-18 04:34N 51°28' E 000°20'0 0.0
2014-Sep-18 03:34N 51°28' E 000°20'0 0.0
2014-Sep-18 02:34N 51°28' E 000°20'0 0.0
2014-Sep-18 01:34N 51°28' E 000°20'0 0.0
2014-Sep-18 00:34N 51°28' E 000°20'0 0.0
2014-Sep-17 23:34N 51°28' E 000°20'0 0.0
2014-Sep-17 22:34N 51°28' E 000°20'0 0.0
2014-Sep-17 21:34N 51°28' E 000°20'0 0.0
2014-Sep-17 20:34N 51°28' E 000°20'0 0.0
2014-Sep-17 19:34N 51°28' E 000°20'0 0.0
2014-Sep-17 18:34N 51°28' E 000°20'3 2.8
2014-Sep-17 17:34N 51°27' E 000°24'8 8.0
2014-Sep-17 16:33N 51°30' E 000°36'1010.4
2014-Sep-17 15:33N 51°30' E 000°53'4 3.8
2014-Sep-17 14:33N 51°30' E 000°58'0 0.0
2014-Sep-17 13:33N 51°30' E 000°58'0 0.0
2014-Sep-17 12:32N 51°30' E 000°58'0 0.1
2014-Sep-17 11:32N 51°30' E 000°59'2 2.2
2014-Sep-17 10:34N 51°30' E 001°02'9 9.4
2014-Sep-17 09:34N 51°29' E 001°17'9 9.1
2014-Sep-17 08:34N 51°26' E 001°31'1010.1
2014-Sep-17 07:33N 51°16' E 001°36'1010.0
2014-Sep-17 06:34N 51°07' E 001°39'8 7.2
2014-Sep-17 05:27N 50°60' E 001°32'26 6.3
2014-Sep-17 01:18N 50°38' E 001°10'10 5.5
2014-Sep-16 23:29N 50°32' E 000°58'5 5.4
2014-Sep-16 22:33N 50°30' E 000°50'6 6.1
2014-Sep-16 21:34N 50°28' E 000°41'6 6.1
2014-Sep-16 20:33N 50°27' E 000°32'6 5.2
2014-Sep-16 19:22N 50°26' E 000°23'5 4.9
2014-Sep-16 18:19N 50°24' E 000°15'4 5.4
2014-Sep-16 17:34N 50°23' E 000°09'6 5.8
2014-Sep-16 16:34N 50°21' W 000°00'9 6.7
2014-Sep-16 15:15N 50°17' W 000°12'8 7.4
2014-Sep-16 14:10N 50°14' W 000°24'6 8.0
2014-Sep-16 13:27N 50°11' W 000°32'  
2014-Sep-12 04:30N 50°34' E 000°05'1111.5
2014-Sep-12 03:32N 50°37' E 000°22'1010.6
2014-Sep-12 02:33N 50°40' E 000°37'10 9.5
2014-Sep-12 01:33N 50°46' E 000°49'28 9.2
2014-Sep-11 22:33N 51°03' E 001°24'1312.9
2014-Sep-11 21:33N 51°13' E 001°37'1212.3
2014-Sep-11 20:33N 51°25' E 001°32'1110.6
2014-Sep-11 19:33N 51°29' E 001°17'1111.0
2014-Sep-11 18:33N 51°29' E 000°59'1010.4
2014-Sep-11 17:33N 51°30' E 000°42'1010.2
2014-Sep-11 16:33N 51°27' E 000°26'10 9.9
2014-Sep-11 15:33N 51°29' E 000°11'  
Track history (hours):
 
Tides and Currents Weather Stations Pressure Air Temp Water Temp Dewpoint Dewpoint Depression Visibility Wind Speed Wind Dir Waves Ship Positions

Hertfordshire

Last reported at 2014-Sep-21 15:33 UTC. Time now 2014-Sep-21 16:14 UTC.
Position N 56°06' W 003°07'.

Length 83 m; draft 4.3 m.

Type: Cargo ship. MMSI: 236563000.

Date/timePositionNaut miles runAvg speedWind from/ knotsBaromVisibWave heightAir tempDewpointWater temp
2014-Sep-21 15:33N 56°06' W 003°07'0 0.0
2014-Sep-21 14:33N 56°06' W 003°07'0 0.0
2014-Sep-21 13:33N 56°06' W 003°07'0 0.0
2014-Sep-21 12:33N 56°06' W 003°07'0 0.0
2014-Sep-21 11:33N 56°06' W 003°07'0 0.0
2014-Sep-21 10:33N 56°06' W 003°07'0 0.0
2014-Sep-21 09:33N 56°06' W 003°07'0 0.0
2014-Sep-21 08:24N 56°06' W 003°07'0 0.0
2014-Sep-21 07:24N 56°06' W 003°07'0 0.0
2014-Sep-21 06:27N 56°06' W 003°07'0 0.0
2014-Sep-21 05:27N 56°06' W 003°07'0 0.0
2014-Sep-21 04:27N 56°06' W 003°07'0 0.0
2014-Sep-21 03:30N 56°06' W 003°07'0 0.0
2014-Sep-21 02:30N 56°06' W 003°07'0 0.0
2014-Sep-21 01:33N 56°06' W 003°07'0 0.0
2014-Sep-21 00:33N 56°06' W 003°07'0 0.0
2014-Sep-20 23:33N 56°06' W 003°07'0 0.0
2014-Sep-20 22:33N 56°06' W 003°07'0 0.0
2014-Sep-20 21:33N 56°06' W 003°07'0 0.0
2014-Sep-20 20:33N 56°06' W 003°07'0 0.0
2014-Sep-20 19:33N 56°06' W 003°07'0 0.0
2014-Sep-20 18:24N 56°06' W 003°07'0 0.1
2014-Sep-20 17:27N 56°06' W 003°07'0 0.0
2014-Sep-20 16:27N 56°06' W 003°07'0 0.0
2014-Sep-20 15:27N 56°06' W 003°07'0 0.0
2014-Sep-20 14:27N 56°06' W 003°07'0 0.0
2014-Sep-20 13:30N 56°06' W 003°07'0 0.0
2014-Sep-20 12:30N 56°07' W 003°07'4 4.7
2014-Sep-20 11:33N 56°06' W 002°59'1010.4
2014-Sep-20 10:33N 56°06' W 002°41'1010.2
2014-Sep-20 09:33N 56°02' W 002°24'1010.2
2014-Sep-20 08:33N 55°57' W 002°07'29 9.5
2014-Sep-20 05:32N 55°38' W 001°30'1110.2
2014-Sep-20 04:30N 55°28' W 001°21'10 9.9
2014-Sep-20 03:27N 55°19' W 001°12'9 9.7
2014-Sep-20 02:33N 55°12' W 001°05'10 9.7
2014-Sep-20 01:33N 55°03' W 000°57'9 9.5
2014-Sep-20 00:33N 54°55' W 000°48'9 9.3
2014-Sep-19 23:33N 54°47' W 000°40'10 9.5
2014-Sep-19 22:33N 54°39' W 000°32'10 9.9
2014-Sep-19 21:33N 54°31' W 000°22'1010.2
2014-Sep-19 20:33N 54°22' W 000°13'1110.6
2014-Sep-19 19:33N 54°13' W 000°03'1110.7
2014-Sep-19 18:33N 54°04' E 000°07'1010.4
2014-Sep-19 17:33N 53°55' E 000°15'1010.2
2014-Sep-19 16:33N 53°46' E 000°23'10 9.6
2014-Sep-19 15:31N 53°37' E 000°30'38 8.9
2014-Sep-19 11:18N 53°04' E 001°03'810.9
2014-Sep-19 10:33N 53°00' E 001°14'1211.6
2014-Sep-19 09:34N 52°55' E 001°31'1111.1
2014-Sep-19 08:33N 52°48' E 001°46'9 9.0
2014-Sep-19 07:33N 52°40' E 001°54'9 9.3
2014-Sep-19 06:33N 52°31' E 001°53'9 8.6
2014-Sep-19 05:33N 52°23' E 001°52'8 8.3
2014-Sep-19 04:33N 52°14' E 001°51'8 8.3
2014-Sep-19 03:33N 52°06' E 001°50'9 8.8
2014-Sep-19 02:33N 51°57' E 001°49'8 8.2
2014-Sep-19 01:33N 51°50' E 001°44'10 9.8
2014-Sep-19 00:33N 51°46' E 001°29'1110.8
2014-Sep-18 23:34N 51°39' E 001°16'1110.9
2014-Sep-18 22:33N 51°32' E 001°02'1110.6
2014-Sep-18 21:33N 51°29' E 000°46'1010.0
2014-Sep-18 20:33N 51°30' E 000°30'7 6.7
2014-Sep-18 19:33N 51°28' E 000°20'0 0.2
2014-Sep-18 18:33N 51°28' E 000°20'0 0.0
2014-Sep-18 17:33N 51°28' E 000°20'0 0.0
2014-Sep-18 16:33N 51°28' E 000°20'0 0.0
2014-Sep-18 15:33N 51°28' E 000°20'0 0.0
2014-Sep-18 14:33N 51°28' E 000°20'0 0.0
2014-Sep-18 13:33N 51°28' E 000°20'0 0.0
2014-Sep-18 12:34N 51°28' E 000°20'0 0.0
2014-Sep-18 11:34N 51°28' E 000°20'0 0.0
2014-Sep-18 10:34N 51°28' E 000°20'0 0.0
2014-Sep-18 09:34N 51°28' E 000°20'0 0.0
2014-Sep-18 08:34N 51°28' E 000°20'0 0.0
2014-Sep-18 07:34N 51°28' E 000°20'0 0.0
2014-Sep-18 06:34N 51°28' E 000°20'0 0.1
2014-Sep-18 05:34N 51°28' E 000°20'0 0.1
2014-Sep-18 04:34N 51°28' E 000°20'0 0.0
2014-Sep-18 03:34N 51°28' E 000°20'0 0.0
2014-Sep-18 02:34N 51°28' E 000°20'0 0.0
2014-Sep-18 01:34N 51°28' E 000°20'0 0.0
2014-Sep-18 00:34N 51°28' E 000°20'0 0.0
2014-Sep-17 23:34N 51°28' E 000°20'0 0.0
2014-Sep-17 22:34N 51°28' E 000°20'0 0.0
2014-Sep-17 21:34N 51°28' E 000°20'0 0.0
2014-Sep-17 20:34N 51°28' E 000°20'0 0.0
2014-Sep-17 19:34N 51°28' E 000°20'0 0.0
2014-Sep-17 18:34N 51°28' E 000°20'3 2.8
2014-Sep-17 17:34N 51°27' E 000°24'8 8.0
2014-Sep-17 16:33N 51°30' E 000°36'1010.4
2014-Sep-17 15:33N 51°30' E 000°53'4 3.8
2014-Sep-17 14:33N 51°30' E 000°58'0 0.0
2014-Sep-17 13:33N 51°30' E 000°58'0 0.0
2014-Sep-17 12:32N 51°30' E 000°58'0 0.1
2014-Sep-17 11:32N 51°30' E 000°59'2 2.2
2014-Sep-17 10:34N 51°30' E 001°02'9 9.4
2014-Sep-17 09:34N 51°29' E 001°17'9 9.1
2014-Sep-17 08:34N 51°26' E 001°31'1010.1
2014-Sep-17 07:33N 51°16' E 001°36'1010.0
2014-Sep-17 06:34N 51°07' E 001°39'8 7.2
2014-Sep-17 05:27N 50°60' E 001°32'26 6.3
2014-Sep-17 01:18N 50°38' E 001°10'10 5.5
2014-Sep-16 23:29N 50°32' E 000°58'5 5.4
2014-Sep-16 22:33N 50°30' E 000°50'6 6.1
2014-Sep-16 21:34N 50°28' E 000°41'6 6.1
2014-Sep-16 20:33N 50°27' E 000°32'6 5.2
2014-Sep-16 19:22N 50°26' E 000°23'5 4.9
2014-Sep-16 18:19N 50°24' E 000°15'4 5.4
2014-Sep-16 17:34N 50°23' E 000°09'6 5.8
2014-Sep-16 16:34N 50°21' W 000°00'9 6.7
2014-Sep-16 15:15N 50°17' W 000°12'8 7.4
2014-Sep-16 14:10N 50°14' W 000°24'6 8.0
2014-Sep-16 13:27N 50°11' W 000°32'  
2014-Sep-12 04:30N 50°34' E 000°05'1111.5
2014-Sep-12 03:32N 50°37' E 000°22'1010.6
2014-Sep-12 02:33N 50°40' E 000°37'10 9.5
2014-Sep-12 01:33N 50°46' E 000°49'28 9.2
2014-Sep-11 22:33N 51°03' E 001°24'1312.9
2014-Sep-11 21:33N 51°13' E 001°37'1212.3
2014-Sep-11 20:33N 51°25' E 001°32'1110.6
2014-Sep-11 19:33N 51°29' E 001°17'1111.0
2014-Sep-11 18:33N 51°29' E 000°59'1010.4
2014-Sep-11 17:33N 51°30' E 000°42'1010.2
2014-Sep-11 16:33N 51°27' E 000°26'10 9.9
2014-Sep-11 15:33N 51°29' E 000°11'  

Dump ship's entire track history